Time;durP1;ratioP1;P1;durP2;ratioP2;P2;SDS_P1;SDS_P2;PMS_P1;PMS_P2;Temp;Humidity;BMP_temperature;BMP_pressure;BME280_temperature;BME280_humidity;BME280_pressure;Samples;Min_cycle;Max_cycle;Signal;HPM_P1;HPM_P2
2022/07/28 00:01:34;;;;;;;;;;;22.50;42.10;;;;;;5051200;28;20416;-60
2022/07/28 00:04:00;;;;;;;;;;;22.50;42.10;;;;;;5036210;28;19940;-61
2022/07/28 00:06:27;;;;;;;;;;;22.40;42.00;;;;;;5060635;28;19935;-62
2022/07/28 00:08:55;;;;;;;;;;;22.50;42.70;;;;;;5029361;28;19921;-61
2022/07/28 00:11:22;;;;;;;;;;;22.40;42.00;;;;;;5029820;28;20015;-60
2022/07/28 00:13:49;;;;;;;;;;;22.40;42.00;;;;;;5030833;28;19921;-60
2022/07/28 00:16:15;;;;;;;;;;;22.50;42.10;;;;;;5031612;28;19921;-61
2022/07/28 00:18:42;;;;;;;;;;;22.50;42.10;;;;;;5030994;28;19925;-62
2022/07/28 00:21:09;;;;;;;;;;;22.50;42.10;;;;;;5028033;28;19925;-62
2022/07/28 00:23:36;;;;;;;;;;;22.40;42.00;;;;;;5048571;28;20269;-61
2022/07/28 00:26:04;;;;;;;;;;;22.50;42.20;;;;;;5046345;28;19964;-60
2022/07/28 00:28:30;;;;;;;;;;;22.50;42.10;;;;;;5039799;28;19920;-61
2022/07/28 00:30:57;;;;;;;;;;;22.50;42.20;;;;;;5025648;28;19921;-61
2022/07/28 00:33:24;;;;;;;;;;;22.50;42.20;;;;;;5024748;28;19947;-61
2022/07/28 00:35:51;;;;;;;;;;;22.50;42.80;;;;;;5042546;28;20277;-61
2022/07/28 00:38:17;;;;;;;;;;;22.50;42.20;;;;;;5019246;28;19939;-61
2022/07/28 00:43:30;;;;;;;;;;;22.50;42.20;;;;;;5061119;28;20382;-61
2022/07/28 00:45:56;;;;;;;;;;;22.40;42.20;;;;;;5031529;28;19948;-62
2022/07/28 00:48:23;;;;;;;;;;;22.40;42.20;;;;;;5031553;28;19925;-61
2022/07/28 00:50:50;;;;;;;;;;;22.40;42.20;;;;;;5032513;28;19931;-62
2022/07/28 00:53:17;;;;;;;;;;;22.40;42.30;;;;;;5027977;28;19925;-61
2022/07/28 00:55:43;;;;;;;;;;;22.40;42.30;;;;;;5030602;28;21123;-61
2022/07/28 00:58:10;;;;;;;;;;;22.40;42.20;;;;;;5048790;28;19921;-62
2022/07/28 01:00:38;;;;;;;;;;;22.40;42.20;;;;;;5025408;28;20358;-62
2022/07/28 01:03:05;;;;;;;;;;;22.40;42.20;;;;;;5028798;28;20483;-61
2022/07/28 01:05:34;;;;;;;;;;;22.40;42.20;;;;;;5029412;28;19920;-62
2022/07/28 01:08:01;;;;;;;;;;;22.40;42.20;;;;;;5030154;28;19927;-62
2022/07/28 01:10:29;;;;;;;;;;;22.40;42.20;;;;;;5043661;28;19932;-61
2022/07/28 01:12:58;;;;;;;;;;;22.40;42.20;;;;;;5022418;28;19966;-61
2022/07/28 01:15:25;;;;;;;;;;;22.40;42.20;;;;;;5031052;28;19927;-61
2022/07/28 01:17:57;;;;;;;;;;;22.40;42.20;;;;;;5023557;28;19960;-61
2022/07/28 01:20:25;;;;;;;;;;;22.40;42.20;;;;;;5025141;28;19987;-61
2022/07/28 01:22:58;;;;;;;;;;;22.40;42.20;;;;;;5058564;28;19967;-61
2022/07/28 01:25:29;;;;;;;;;;;22.40;42.20;;;;;;5026097;28;19929;-61
2022/07/28 01:28:00;;;;;;;;;;;22.40;42.20;;;;;;5028667;28;19975;-61
2022/07/28 01:30:30;;;;;;;;;;;22.40;42.20;;;;;;5026380;28;19944;-62
2022/07/28 01:32:57;;;;;;;;;;;22.40;42.20;;;;;;5046325;28;19952;-61
2022/07/28 01:35:25;;;;;;;;;;;22.40;42.20;;;;;;5027714;28;19927;-61
2022/07/28 01:37:52;;;;;;;;;;;22.40;42.30;;;;;;5031768;28;19963;-61
2022/07/28 01:40:20;;;;;;;;;;;22.40;42.20;;;;;;5029609;28;19920;-62
2022/07/28 01:42:48;;;;;;;;;;;22.40;42.20;;;;;;5049043;28;19948;-61
2022/07/28 01:45:15;;;;;;;;;;;22.40;42.20;;;;;;5049886;28;19978;-61
2022/07/28 01:47:44;;;;;;;;;;;22.40;42.20;;;;;;5030505;28;19975;-60
2022/07/28 01:50:11;;;;;;;;;;;22.40;42.30;;;;;;5045918;28;19935;-61
2022/07/28 01:52:38;;;;;;;;;;;22.40;42.30;;;;;;5048374;28;20015;-61
2022/07/28 01:55:05;;;;;;;;;;;22.30;42.20;;;;;;5028299;28;19986;-61
2022/07/28 01:57:32;;;;;;;;;;;22.40;42.30;;;;;;5030189;28;19987;-61
2022/07/28 01:59:59;;;;;;;;;;;22.40;42.30;;;;;;5029909;28;19971;-61
2022/07/28 02:02:26;;;;;;;;;;;22.30;42.20;;;;;;5045291;28;19924;-60
2022/07/28 02:04:54;;;;;;;;;;;22.30;42.20;;;;;;5030489;28;19971;-59
2022/07/28 02:07:21;;;;;;;;;;;22.30;42.20;;;;;;5025991;28;19924;-61
2022/07/28 02:09:48;;;;;;;;;;;22.40;42.30;;;;;;5047134;28;19941;-61
2022/07/28 02:12:15;;;;;;;;;;;22.30;42.20;;;;;;5027909;28;19920;-61
2022/07/28 02:14:41;;;;;;;;;;;22.30;42.20;;;;;;5032632;28;19986;-61
2022/07/28 02:17:09;;;;;;;;;;;22.30;42.20;;;;;;5048745;28;20437;-61
2022/07/28 02:19:35;;;;;;;;;;;22.30;42.20;;;;;;5064040;28;20281;-61
2022/07/28 02:22:04;;;;;;;;;;;22.30;42.20;;;;;;5029598;28;19994;-62
2022/07/28 02:24:31;;;;;;;;;;;22.30;42.20;;;;;;5023409;28;19971;-62
2022/07/28 02:26:59;;;;;;;;;;;22.30;42.20;;;;;;5027743;28;20016;-61
2022/07/28 02:29:26;;;;;;;;;;;22.30;42.20;;;;;;5020978;28;20011;-61
2022/07/28 02:31:54;;;;;;;;;;;22.30;42.20;;;;;;5026302;28;20357;-61
2022/07/28 02:34:21;;;;;;;;;;;22.30;42.10;;;;;;5028431;28;19921;-61
2022/07/28 02:36:50;;;;;;;;;;;22.30;42.20;;;;;;5047593;28;20004;-62
2022/07/28 02:39:20;;;;;;;;;;;22.30;42.20;;;;;;5046452;28;19928;-61
2022/07/28 02:41:47;;;;;;;;;;;22.30;42.20;;;;;;5043782;28;20388;-61
2022/07/28 02:44:14;;;;;;;;;;;22.30;42.20;;;;;;5029850;28;19921;-61
2022/07/28 02:46:41;;;;;;;;;;;22.30;42.20;;;;;;5066941;28;19975;-61
2022/07/28 02:49:10;;;;;;;;;;;22.30;42.20;;;;;;5030955;28;19921;-61
2022/07/28 02:51:37;;;;;;;;;;;22.30;42.20;;;;;;5031201;28;19925;-61
2022/07/28 02:54:04;;;;;;;;;;;22.30;42.20;;;;;;5031315;28;19921;-60
2022/07/28 02:56:32;;;;;;;;;;;22.30;42.20;;;;;;5032861;28;20016;-61
2022/07/28 02:58:59;;;;;;;;;;;22.30;42.20;;;;;;5048580;28;19935;-61
2022/07/28 03:01:25;;;;;;;;;;;22.30;42.80;;;;;;5023560;28;20302;-61
2022/07/28 03:03:52;;;;;;;;;;;22.30;42.20;;;;;;5029118;28;20011;-61
2022/07/28 03:06:21;;;;;;;;;;;22.30;42.20;;;;;;5029821;28;19929;-60
2022/07/28 03:08:49;;;;;;;;;;;22.30;42.20;;;;;;5041744;28;20350;-61
2022/07/28 03:11:15;;;;;;;;;;;22.30;42.20;;;;;;5030276;28;19928;-61
2022/07/28 03:13:43;;;;;;;;;;;22.30;42.20;;;;;;5056797;28;19953;-60
2022/07/28 03:16:10;;;;;;;;;;;22.30;42.20;;;;;;5028415;28;20019;-61
2022/07/28 03:18:37;;;;;;;;;;;22.30;42.20;;;;;;5047744;28;19957;-61
2022/07/28 03:21:03;;;;;;;;;;;22.30;42.20;;;;;;5048060;28;19952;-60
2022/07/28 03:23:37;;;;;;;;;;;22.30;42.20;;;;;;5031983;28;20374;-61
2022/07/28 03:26:05;;;;;;;;;;;22.30;42.30;;;;;;5031265;28;19921;-61
2022/07/28 03:28:32;;;;;;;;;;;22.30;42.30;;;;;;5043901;28;19928;-60
2022/07/28 03:31:00;;;;;;;;;;;22.30;42.30;;;;;;5053212;28;19931;-60
2022/07/28 03:33:27;;;;;;;;;;;22.30;42.30;;;;;;5052801;28;20012;-61
2022/07/28 03:35:54;;;;;;;;;;;22.20;42.20;;;;;;5034504;28;19967;-59
2022/07/28 03:38:21;;;;;;;;;;;22.30;42.30;;;;;;5024093;28;19983;-60
2022/07/28 03:40:48;;;;;;;;;;;22.30;42.30;;;;;;5033628;28;19929;-65
2022/07/28 03:43:15;;;;;;;;;;;22.30;42.40;;;;;;5051015;28;19999;-61
2022/07/28 03:45:42;;;;;;;;;;;22.30;42.40;;;;;;5050216;28;19921;-62
2022/07/28 03:48:11;;;;;;;;;;;22.30;42.40;;;;;;5029680;28;19931;-61
2022/07/28 03:50:37;;;;;;;;;;;22.20;42.30;;;;;;5032364;28;19925;-61
2022/07/28 03:53:04;;;;;;;;;;;22.30;42.50;;;;;;5062389;28;19932;-61
2022/07/28 03:55:31;;;;;;;;;;;22.30;42.40;;;;;;5030326;28;19924;-60
2022/07/28 03:57:57;;;;;;;;;;;22.30;42.40;;;;;;5022898;28;20414;-61
2022/07/28 04:00:25;;;;;;;;;;;22.30;42.50;;;;;;5031195;28;20014;-62
2022/07/28 04:02:51;;;;;;;;;;;22.20;42.40;;;;;;5029880;28;19931;-61
2022/07/28 04:05:19;;;;;;;;;;;22.20;42.40;;;;;;5051712;28;19924;-60
2022/07/28 04:07:46;;;;;;;;;;;22.20;42.40;;;;;;5050668;28;19925;-61
2022/07/28 04:10:14;;;;;;;;;;;22.20;42.40;;;;;;5067518;28;19921;-61
2022/07/28 04:12:46;;;;;;;;;;;22.20;42.40;;;;;;5065756;28;20012;-61
2022/07/28 04:15:13;;;;;;;;;;;22.20;42.40;;;;;;5026008;28;19921;-61
2022/07/28 04:17:39;;;;;;;;;;;22.20;42.50;;;;;;5034351;28;20051;-60
2022/07/28 04:20:06;;;;;;;;;;;22.20;42.50;;;;;;5028764;28;20362;-62
2022/07/28 04:22:34;;;;;;;;;;;22.20;42.50;;;;;;5030820;28;19920;-61
2022/07/28 04:25:01;;;;;;;;;;;22.20;42.50;;;;;;5037918;28;19968;-61
2022/07/28 04:27:28;;;;;;;;;;;22.20;42.50;;;;;;5046544;28;20370;-61
2022/07/28 04:29:55;;;;;;;;;;;22.20;42.60;;;;;;5031489;28;20138;-61
2022/07/28 04:32:22;;;;;;;;;;;22.20;42.50;;;;;;5045603;28;19921;-61
2022/07/28 04:34:49;;;;;;;;;;;22.20;42.60;;;;;;5058890;28;20259;-61
2022/07/28 04:37:15;;;;;;;;;;;22.20;42.60;;;;;;5028091;28;19956;-61
2022/07/28 04:39:44;;;;;;;;;;;22.20;42.60;;;;;;5031514;28;19929;-62
2022/07/28 04:42:11;;;;;;;;;;;22.20;42.60;;;;;;5062065;28;19932;-62
2022/07/28 04:44:41;;;;;;;;;;;22.20;42.60;;;;;;5027907;28;20281;-62
2022/07/28 04:47:07;;;;;;;;;;;22.20;42.70;;;;;;5030862;28;19927;-61
2022/07/28 04:49:34;;;;;;;;;;;22.20;42.70;;;;;;5030434;28;19921;-61
2022/07/28 04:52:02;;;;;;;;;;;22.20;42.70;;;;;;5030010;28;20018;-62
2022/07/28 04:54:29;;;;;;;;;;;22.20;42.80;;;;;;5027317;28;20283;-61
2022/07/28 04:56:57;;;;;;;;;;;22.20;42.80;;;;;;5053930;28;19952;-59
2022/07/28 04:59:23;;;;;;;;;;;22.20;43.40;;;;;;5038579;28;19920;-60
2022/07/28 05:01:51;;;;;;;;;;;22.20;42.80;;;;;;5029610;28;20405;-62
2022/07/28 05:04:17;;;;;;;;;;;22.20;42.80;;;;;;5060657;28;19921;-61
2022/07/28 05:06:44;;;;;;;;;;;22.20;42.90;;;;;;5048524;28;19928;-61
2022/07/28 05:09:11;;;;;;;;;;;22.20;42.90;;;;;;5030424;28;19924;-62
2022/07/28 05:11:38;;;;;;;;;;;22.20;43.00;;;;;;5048434;28;19921;-61
2022/07/28 05:14:06;;;;;;;;;;;22.20;43.00;;;;;;5030083;28;19921;-61
2022/07/28 05:16:33;;;;;;;;;;;22.20;43.00;;;;;;5027359;28;19921;-62
2022/07/28 05:18:59;;;;;;;;;;;22.20;43.00;;;;;;5048319;28;19921;-61
2022/07/28 05:21:26;;;;;;;;;;;22.30;43.20;;;;;;5026403;28;19940;-61
2022/07/28 05:23:53;;;;;;;;;;;22.30;43.20;;;;;;5029176;28;19932;-62
2022/07/28 05:26:20;;;;;;;;;;;22.30;43.20;;;;;;5024414;28;19925;-61
2022/07/28 05:28:47;;;;;;;;;;;22.30;43.20;;;;;;5022838;28;19927;-62
2022/07/28 05:31:15;;;;;;;;;;;22.30;43.20;;;;;;5023364;28;19971;-67
2022/07/28 05:33:42;;;;;;;;;;;22.30;43.20;;;;;;5018112;28;20321;-67
2022/07/28 05:36:09;;;;;;;;;;;22.30;43.30;;;;;;5038279;28;19924;-66
2022/07/28 05:38:35;;;;;;;;;;;22.30;43.30;;;;;;5026768;28;19925;-68
2022/07/28 05:41:02;;;;;;;;;;;22.30;43.30;;;;;;5033563;28;19932;-68
2022/07/28 05:43:29;;;;;;;;;;;22.30;43.30;;;;;;5042512;28;20030;-68
2022/07/28 05:45:56;;;;;;;;;;;22.30;43.40;;;;;;5057477;28;19975;-69
2022/07/28 05:48:24;;;;;;;;;;;22.30;43.40;;;;;;5032557;28;19921;-69
2022/07/28 05:50:53;;;;;;;;;;;22.30;43.40;;;;;;5032131;28;19929;-68
2022/07/28 05:53:20;;;;;;;;;;;22.30;43.40;;;;;;5030424;28;19924;-68
2022/07/28 05:55:47;;;;;;;;;;;22.30;43.40;;;;;;5060989;28;20020;-69
2022/07/28 05:58:13;;;;;;;;;;;22.30;43.40;;;;;;5025134;28;19939;-67
2022/07/28 06:00:44;;;;;;;;;;;22.30;43.50;;;;;;5032311;28;20015;-68
2022/07/28 06:03:10;;;;;;;;;;;22.30;43.50;;;;;;5031319;28;19967;-69
2022/07/28 06:05:39;;;;;;;;;;;22.30;43.50;;;;;;5030762;28;20331;-68
2022/07/28 06:08:06;;;;;;;;;;;22.30;43.50;;;;;;5031954;28;19975;-68
2022/07/28 06:13:14;;;;;;;;;;;22.30;43.60;;;;;;5049083;28;19931;-67
2022/07/28 06:15:40;;;;;;;;;;;22.30;43.70;;;;;;5027880;28;20280;-68
2022/07/28 06:18:08;;;;;;;;;;;22.30;43.60;;;;;;5056715;28;20019;-71
2022/07/28 06:20:36;;;;;;;;;;;22.30;43.70;;;;;;5057847;28;19925;-70
2022/07/28 06:23:04;;;;;;;;;;;22.30;43.60;;;;;;5027851;28;20023;-68
2022/07/28 06:25:31;;;;;;;;;;;22.30;43.70;;;;;;5035979;28;20325;-68
2022/07/28 06:28:02;;;;;;;;;;;22.30;43.70;;;;;;5056489;28;20476;-68
2022/07/28 06:30:29;;;;;;;;;;;22.30;43.70;;;;;;5035699;28;19920;-68
2022/07/28 06:32:56;;;;;;;;;;;22.30;43.70;;;;;;5052868;28;19921;-67
2022/07/28 06:35:23;;;;;;;;;;;22.30;43.70;;;;;;5054219;28;19986;-69
2022/07/28 06:37:52;;;;;;;;;;;22.30;43.70;;;;;;5051253;28;19925;-69
2022/07/28 06:40:20;;;;;;;;;;;22.30;43.70;;;;;;5054256;28;19921;-68
2022/07/28 06:42:48;;;;;;;;;;;22.30;43.70;;;;;;5034872;28;19920;-68
2022/07/28 06:45:17;;;;;;;;;;;22.30;43.70;;;;;;5037153;28;20008;-68
2022/07/28 06:47:44;;;;;;;;;;;22.30;43.70;;;;;;5052679;28;19921;-68
2022/07/28 06:50:11;;;;;;;;;;;22.30;43.70;;;;;;5036150;28;19922;-68
2022/07/28 06:52:38;;;;;;;;;;;22.20;43.60;;;;;;5032231;28;19929;-69
2022/07/28 06:55:05;;;;;;;;;;;22.30;43.70;;;;;;5049430;28;19921;-68
2022/07/28 06:57:33;;;;;;;;;;;22.30;43.70;;;;;;5053946;28;20007;-69
2022/07/28 07:00:01;;;;;;;;;;;22.30;43.70;;;;;;5068319;28;19921;-69
2022/07/28 07:02:28;;;;;;;;;;;22.30;43.70;;;;;;5034676;28;19921;-69
2022/07/28 07:04:57;;;;;;;;;;;22.30;43.70;;;;;;5032611;28;19920;-67
2022/07/28 07:07:25;;;;;;;;;;;22.30;43.70;;;;;;5036969;28;19925;-68
2022/07/28 07:09:52;;;;;;;;;;;22.30;43.70;;;;;;5067580;28;19974;-68
2022/07/28 07:12:18;;;;;;;;;;;22.30;43.60;;;;;;5035228;28;19932;-69
2022/07/28 07:14:46;;;;;;;;;;;22.30;43.60;;;;;;5032671;28;19932;-68
2022/07/28 07:17:13;;;;;;;;;;;22.30;43.60;;;;;;5027112;28;20407;-69
2022/07/28 07:19:40;;;;;;;;;;;22.30;43.60;;;;;;5025265;28;19967;-67
2022/07/28 07:22:07;;;;;;;;;;;22.30;44.20;;;;;;5038564;28;20190;-67
2022/07/28 07:24:34;;;;;;;;;;;22.30;43.60;;;;;;5033550;28;19971;-68
2022/07/28 07:27:00;;;;;;;;;;;22.30;43.60;;;;;;5029912;28;19925;-68
2022/07/28 07:29:27;;;;;;;;;;;22.30;43.60;;;;;;5021568;28;19943;-68
2022/07/28 07:31:57;;;;;;;;;;;22.30;43.60;;;;;;5032278;28;20024;-67
2022/07/28 07:34:24;;;;;;;;;;;22.30;43.60;;;;;;5033773;28;20018;-68
2022/07/28 07:36:53;;;;;;;;;;;22.30;44.20;;;;;;5033219;28;20083;-67
2022/07/28 07:39:19;;;;;;;;;;;22.20;43.50;;;;;;5046066;28;19925;-69
2022/07/28 07:41:46;;;;;;;;;;;22.30;43.60;;;;;;5033342;28;19921;-70
2022/07/28 07:44:13;;;;;;;;;;;22.30;43.60;;;;;;5036050;28;19932;-69
2022/07/28 07:46:40;;;;;;;;;;;22.30;43.50;;;;;;5053708;28;19929;-68
2022/07/28 07:49:08;;;;;;;;;;;22.30;43.50;;;;;;5035541;28;19928;-68
2022/07/28 07:51:35;;;;;;;;;;;22.30;43.50;;;;;;5053890;28;19979;-67
2022/07/28 07:54:01;;;;;;;;;;;22.20;43.40;;;;;;5035308;28;19924;-68
2022/07/28 07:56:28;;;;;;;;;;;22.30;43.50;;;;;;5025276;28;19921;-71
2022/07/28 07:58:55;;;;;;;;;;;22.30;43.50;;;;;;5045388;28;19921;-68
2022/07/28 08:01:22;;;;;;;;;;;22.30;43.50;;;;;;5023525;28;19925;-68
2022/07/28 08:03:49;;;;;;;;;;;22.30;43.40;;;;;;5025743;28;19927;-67
2022/07/28 08:06:28;;;;;;;;;;;22.30;43.40;;;;;;5035996;28;19924;-68
2022/07/28 08:08:56;;;;;;;;;;;22.30;43.40;;;;;;5045813;28;19971;-68
2022/07/28 08:11:25;;;;;;;;;;;22.30;43.40;;;;;;5049093;28;19921;-69
2022/07/28 08:13:51;;;;;;;;;;;22.20;43.20;;;;;;5057053;28;19928;-67
2022/07/28 08:16:18;;;;;;;;;;;22.30;43.30;;;;;;5024239;28;20412;-68
2022/07/28 08:18:45;;;;;;;;;;;22.30;43.30;;;;;;5071474;28;19932;-68
2022/07/28 08:21:16;;;;;;;;;;;22.30;43.20;;;;;;5035239;28;19952;-68
2022/07/28 08:23:44;;;;;;;;;;;22.30;43.20;;;;;;5025267;28;19928;-68
2022/07/28 08:26:11;;;;;;;;;;;22.30;43.30;;;;;;5052781;28;20022;-67
2022/07/28 08:28:38;;;;;;;;;;;22.30;43.30;;;;;;5024935;28;19921;-68
2022/07/28 08:31:06;;;;;;;;;;;22.20;43.10;;;;;;5035151;28;19928;-68
2022/07/28 08:33:33;;;;;;;;;;;22.30;43.20;;;;;;5030491;28;19921;-68
2022/07/28 08:36:00;;;;;;;;;;;22.20;43.10;;;;;;5046051;28;20350;-68
2022/07/28 08:38:26;;;;;;;;;;;22.30;43.10;;;;;;5052567;28;19928;-67
2022/07/28 08:40:56;;;;;;;;;;;22.30;43.10;;;;;;5034556;28;20309;-67
2022/07/28 08:43:24;;;;;;;;;;;22.30;43.00;;;;;;5037301;28;20011;-70
2022/07/28 08:45:51;;;;;;;;;;;22.30;43.00;;;;;;5030282;28;19925;-68
2022/07/28 08:48:18;;;;;;;;;;;22.30;42.90;;;;;;5032950;28;20016;-68
2022/07/28 08:50:45;;;;;;;;;;;22.30;42.90;;;;;;5048850;28;19929;-68
2022/07/28 08:53:13;;;;;;;;;;;22.30;42.90;;;;;;5032058;28;19929;-68
2022/07/28 08:55:42;;;;;;;;;;;22.30;42.90;;;;;;5025855;28;19937;-68
2022/07/28 08:58:13;;;;;;;;;;;22.30;42.90;;;;;;5043123;28;19925;-67
2022/07/28 09:00:40;;;;;;;;;;;22.30;42.90;;;;;;5032794;28;19925;-68
2022/07/28 09:03:07;;;;;;;;;;;22.30;42.90;;;;;;5015032;28;20359;-67
2022/07/28 09:05:37;;;;;;;;;;;22.30;42.80;;;;;;5046368;28;19991;-67
2022/07/28 09:08:03;;;;;;;;;;;22.20;42.60;;;;;;5014331;28;19940;-70
2022/07/28 09:10:30;;;;;;;;;;;22.30;42.50;;;;;;5045112;28;19921;-67
2022/07/28 09:12:58;;;;;;;;;;;22.30;43.10;;;;;;5014596;28;20023;-67
2022/07/28 09:15:27;;;;;;;;;;;22.20;42.40;;;;;;5031785;28;19928;-68
2022/07/28 09:17:54;;;;;;;;;;;22.20;42.40;;;;;;5035725;28;19971;-69
2022/07/28 09:20:21;;;;;;;;;;;22.20;42.40;;;;;;5030655;28;19921;-67
2022/07/28 09:22:57;;;;;;;;;;;22.20;42.40;;;;;;5014240;28;19925;-69
2022/07/28 09:25:24;;;;;;;;;;;22.20;42.20;;;;;;5065116;28;19978;-69
2022/07/28 09:27:51;;;;;;;;;;;22.20;42.10;;;;;;5021307;28;19968;-69
2022/07/28 09:30:31;;;;;;;;;;;22.20;42.20;;;;;;5047840;28;20306;-67
2022/07/28 09:33:17;;;;;;;;;;;22.20;42.20;;;;;;5033568;28;19971;-69
2022/07/28 09:35:44;;;;;;;;;;;22.20;42.30;;;;;;5034010;28;19921;-70
2022/07/28 09:38:12;;;;;;;;;;;22.20;42.30;;;;;;5030048;28;19956;-68
2022/07/28 09:40:39;;;;;;;;;;;22.20;42.40;;;;;;5049773;28;19920;-67
2022/07/28 09:43:07;;;;;;;;;;;22.20;42.40;;;;;;5025216;28;19987;-67
2022/07/28 09:45:36;;;;;;;;;;;22.20;42.40;;;;;;5033173;28;19982;-68
2022/07/28 09:48:09;;;;;;;;;;;22.20;42.40;;;;;;5044460;28;19928;-69
2022/07/28 09:50:36;;;;;;;;;;;22.20;42.40;;;;;;5048806;28;20382;-68
2022/07/28 09:53:10;;;;;;;;;;;22.20;42.50;;;;;;5032671;28;20019;-68
2022/07/28 09:55:38;;;;;;;;;;;22.20;42.40;;;;;;5024317;28;19928;-68
2022/07/28 09:58:09;;;;;;;;;;;22.20;42.50;;;;;;5013407;28;20218;-67
2022/07/28 10:00:37;;;;;;;;;;;22.20;42.50;;;;;;5041489;28;19932;-68
2022/07/28 10:03:04;;;;;;;;;;;22.20;42.50;;;;;;5046516;28;20324;-67
2022/07/28 10:05:38;;;;;;;;;;;22.30;42.50;;;;;;5045772;28;20015;-68
2022/07/28 10:08:05;;;;;;;;;;;22.20;42.40;;;;;;5048110;28;19921;-68
2022/07/28 10:10:32;;;;;;;;;;;22.30;42.50;;;;;;5062140;28;19920;-68
2022/07/28 10:13:00;;;;;;;;;;;22.30;42.50;;;;;;5051204;28;20408;-69
2022/07/28 10:18:13;;;;;;;;;;;22.30;42.50;;;;;;5046608;28;19975;-68
2022/07/28 10:20:39;;;;;;;;;;;22.30;42.50;;;;;;5062758;28;19921;-69
2022/07/28 10:23:07;;;;;;;;;;;22.30;42.50;;;;;;5028296;28;19961;-68
2022/07/28 10:25:37;;;;;;;;;;;22.30;42.50;;;;;;5032888;28;19921;-68
2022/07/28 10:28:04;;;;;;;;;;;22.30;42.50;;;;;;5027438;28;19925;-69
2022/07/28 10:30:31;;;;;;;;;;;22.30;42.50;;;;;;5041939;28;19965;-69
2022/07/28 10:32:58;;;;;;;;;;;22.30;42.50;;;;;;5028353;28;20428;-69
2022/07/28 10:35:26;;;;;;;;;;;22.30;42.50;;;;;;5030776;28;19931;-67
2022/07/28 10:37:54;;;;;;;;;;;22.30;42.50;;;;;;5030748;28;19975;-68
2022/07/28 10:40:22;;;;;;;;;;;22.30;42.40;;;;;;5046802;28;20332;-68
2022/07/28 10:42:49;;;;;;;;;;;22.30;42.40;;;;;;5047090;28;20394;-67
2022/07/28 10:45:16;;;;;;;;;;;22.30;42.30;;;;;;5030223;28;20397;-68
2022/07/28 10:47:43;;;;;;;;;;;22.30;42.30;;;;;;5046264;28;19925;-68
2022/07/28 10:50:11;;;;;;;;;;;22.30;42.30;;;;;;5056862;28;19971;-67
2022/07/28 10:52:40;;;;;;;;;;;22.30;42.30;;;;;;5029525;28;19927;-67
2022/07/28 10:55:09;;;;;;;;;;;22.30;42.30;;;;;;5023104;28;19920;-67
2022/07/28 10:57:36;;;;;;;;;;;22.30;42.40;;;;;;5032899;28;19928;-69
2022/07/28 11:00:07;;;;;;;;;;;22.30;42.40;;;;;;5029944;28;19928;-67
2022/07/28 11:03:00;;;;;;;;;;;22.30;42.40;;;;;;5032875;28;19927;-69
2022/07/28 11:05:28;;;;;;;;;;;22.30;42.40;;;;;;5051866;28;19928;-68
2022/07/28 11:07:56;;;;;;;;;;;22.30;42.30;;;;;;5035181;28;19929;-67
2022/07/28 11:10:23;;;;;;;;;;;22.30;42.20;;;;;;5036544;28;19979;-69
2022/07/28 11:12:50;;;;;;;;;;;22.30;42.20;;;;;;5056428;28;19959;-68
2022/07/28 11:15:30;;;;;;;;;;;22.30;42.20;;;;;;5059781;28;20007;-69
2022/07/28 11:17:58;;;;;;;;;;;22.30;42.20;;;;;;5034496;28;20012;-68
2022/07/28 11:20:40;;;;;;;;;;;22.30;42.20;;;;;;5027257;28;19921;-68
2022/07/28 11:23:21;;;;;;;;;;;22.30;42.20;;;;;;5053097;28;19940;-69
2022/07/28 11:25:58;;;;;;;;;;;22.30;42.20;;;;;;5035252;28;19932;-68
2022/07/28 11:28:25;;;;;;;;;;;22.30;42.20;;;;;;5018920;28;19975;-67
2022/07/28 11:30:53;;;;;;;;;;;22.30;42.10;;;;;;5030115;28;19924;-67
2022/07/28 11:33:28;;;;;;;;;;;22.30;42.10;;;;;;5035713;28;20358;-68
2022/07/28 11:35:55;;;;;;;;;;;22.30;42.10;;;;;;5029837;28;19936;-68
2022/07/28 11:38:23;;;;;;;;;;;22.30;42.20;;;;;;5035895;28;19921;-68
2022/07/28 11:40:50;;;;;;;;;;;22.30;42.20;;;;;;5028197;28;20361;-68
2022/07/28 11:43:29;;;;;;;;;;;22.30;42.20;;;;;;5023851;28;19982;-72
2022/07/28 11:46:14;;;;;;;;;;;22.30;42.30;;;;;;5046081;28;19932;-68
2022/07/28 11:48:43;;;;;;;;;;;22.30;42.30;;;;;;5034459;28;19921;-68
2022/07/28 11:51:10;;;;;;;;;;;22.30;42.30;;;;;;5052782;28;20348;-69
2022/07/28 11:53:37;;;;;;;;;;;22.30;42.30;;;;;;5033146;28;19928;-68
2022/07/28 11:56:04;;;;;;;;;;;22.30;42.30;;;;;;5039066;28;19921;-67
2022/07/28 11:58:32;;;;;;;;;;;22.30;42.30;;;;;;5031473;28;19975;-67
2022/07/28 12:01:12;;;;;;;;;;;22.30;42.30;;;;;;5033177;28;19943;-67
2022/07/28 12:03:41;;;;;;;;;;;22.30;42.30;;;;;;5058940;28;20392;-67
2022/07/28 12:06:10;;;;;;;;;;;22.40;42.40;;;;;;5045620;28;20029;-67
2022/07/28 12:08:49;;;;;;;;;;;22.40;42.30;;;;;;5015036;28;19925;-69
2022/07/28 12:11:16;;;;;;;;;;;22.30;42.20;;;;;;5062124;28;20000;-69
2022/07/28 12:13:44;;;;;;;;;;;22.40;42.10;;;;;;5033080;28;20433;-68
2022/07/28 12:16:11;;;;;;;;;;;22.40;42.00;;;;;;5059469;28;19932;-69
2022/07/28 12:18:39;;;;;;;;;;;22.30;41.90;;;;;;5032121;28;19932;-68
2022/07/28 12:21:06;;;;;;;;;;;22.40;41.90;;;;;;5047807;28;19921;-68
2022/07/28 12:23:35;;;;;;;;;;;22.30;41.90;;;;;;5032592;28;19967;-67
2022/07/28 12:26:03;;;;;;;;;;;22.30;41.90;;;;;;5033068;28;19956;-70
2022/07/28 12:28:31;;;;;;;;;;;22.40;42.00;;;;;;5028710;28;19928;-67
2022/07/28 12:31:11;;;;;;;;;;;22.40;42.00;;;;;;5048432;28;19932;-67
2022/07/28 12:33:41;;;;;;;;;;;22.30;41.90;;;;;;5046204;28;19951;-67
2022/07/28 12:36:07;;;;;;;;;;;22.40;42.00;;;;;;5032417;28;20494;-67
2022/07/28 12:38:34;;;;;;;;;;;22.40;42.00;;;;;;5033416;28;20312;-68
2022/07/28 12:41:01;;;;;;;;;;;22.40;42.00;;;;;;5031878;28;19975;-68
2022/07/28 12:43:29;;;;;;;;;;;22.40;42.00;;;;;;5045910;28;19929;-68
2022/07/28 12:45:56;;;;;;;;;;;22.40;42.00;;;;;;5023552;28;19920;-67
2022/07/28 12:48:25;;;;;;;;;;;22.40;42.00;;;;;;5038792;28;20337;-70
2022/07/28 12:50:53;;;;;;;;;;;22.40;42.10;;;;;;5041465;28;19921;-67
2022/07/28 12:53:21;;;;;;;;;;;22.40;42.10;;;;;;5030402;28;20024;-68
2022/07/28 12:55:48;;;;;;;;;;;22.40;41.90;;;;;;5021183;28;20412;-67
2022/07/28 12:58:22;;;;;;;;;;;22.40;41.80;;;;;;5037779;28;19952;-69
2022/07/28 13:00:48;;;;;;;;;;;22.40;42.20;;;;;;5039339;28;19925;-67
2022/07/28 13:03:24;;;;;;;;;;;22.40;41.50;;;;;;5031691;28;19987;-68
2022/07/28 13:06:04;;;;;;;;;;;22.40;41.40;;;;;;5045795;28;20008;-67
2022/07/28 13:08:40;;;;;;;;;;;22.30;41.40;;;;;;5013403;28;20309;-68
2022/07/28 13:11:11;;;;;;;;;;;22.40;41.40;;;;;;5034459;28;19925;-68
2022/07/28 13:13:45;;;;;;;;;;;22.30;41.40;;;;;;5013442;28;19929;-67
2022/07/28 13:16:12;;;;;;;;;;;22.30;41.50;;;;;;5019800;28;19925;-68
2022/07/28 13:18:39;;;;;;;;;;;22.30;41.40;;;;;;5066351;28;19952;-67
2022/07/28 13:21:07;;;;;;;;;;;22.40;41.50;;;;;;5042167;28;20258;-69
2022/07/28 13:23:34;;;;;;;;;;;22.40;41.40;;;;;;5013274;28;19925;-69
2022/07/28 13:26:02;;;;;;;;;;;22.40;41.30;;;;;;5039821;28;20259;-67
2022/07/28 13:28:28;;;;;;;;;;;22.30;41.10;;;;;;5052418;28;19925;-68
2022/07/28 13:30:55;;;;;;;;;;;22.30;40.90;;;;;;5020949;28;19956;-68
2022/07/28 13:33:22;;;;;;;;;;;22.30;40.90;;;;;;5045277;28;19943;-68
2022/07/28 13:35:49;;;;;;;;;;;22.30;40.90;;;;;;5036539;28;19986;-68
2022/07/28 13:38:17;;;;;;;;;;;22.30;40.90;;;;;;5032908;28;19978;-68
2022/07/28 13:40:44;;;;;;;;;;;22.30;41.00;;;;;;5020260;28;19942;-67
2022/07/28 13:43:11;;;;;;;;;;;22.30;41.00;;;;;;5050200;28;19975;-67
2022/07/28 13:45:38;;;;;;;;;;;22.30;41.10;;;;;;5050700;28;19951;-68
2022/07/28 13:48:05;;;;;;;;;;;22.30;41.10;;;;;;5019099;28;19925;-69
2022/07/28 13:50:32;;;;;;;;;;;22.30;41.10;;;;;;5016547;28;19924;-69
2022/07/28 13:52:58;;;;;;;;;;;22.30;41.20;;;;;;5032781;28;20340;-67
2022/07/28 13:55:27;;;;;;;;;;;22.30;41.00;;;;;;5030768;28;20286;-68
2022/07/28 13:57:53;;;;;;;;;;;22.30;40.90;;;;;;5032843;28;19974;-68
2022/07/28 14:00:20;;;;;;;;;;;22.30;40.80;;;;;;5030314;28;19925;-67
2022/07/28 14:02:48;;;;;;;;;;;22.30;40.70;;;;;;5032785;28;20270;-69
2022/07/28 14:05:14;;;;;;;;;;;22.30;40.70;;;;;;5050634;28;19935;-68
2022/07/28 14:07:41;;;;;;;;;;;22.30;40.60;;;;;;5062489;28;19933;-69
2022/07/28 14:10:08;;;;;;;;;;;22.30;40.70;;;;;;5012873;28;19925;-67
2022/07/28 14:12:38;;;;;;;;;;;22.20;40.50;;;;;;5049973;28;20328;-68
2022/07/28 14:15:08;;;;;;;;;;;22.30;40.70;;;;;;5032743;28;20406;-70
2022/07/28 14:17:35;;;;;;;;;;;22.30;40.60;;;;;;5028024;28;19922;-67
2022/07/28 14:20:02;;;;;;;;;;;22.30;40.60;;;;;;5029211;28;19951;-69
2022/07/28 14:22:28;;;;;;;;;;;22.30;40.50;;;;;;5024072;28;19924;-68
2022/07/28 14:24:55;;;;;;;;;;;22.30;40.60;;;;;;5030309;28;19921;-68
2022/07/28 14:27:22;;;;;;;;;;;22.20;40.50;;;;;;5047044;28;20385;-68
2022/07/28 14:29:50;;;;;;;;;;;22.30;40.60;;;;;;5032293;28;19928;-67